sensor_id;sensor_type;location;lat;lon;timestamp;temperature;humidity
15298;DHT22;7750;48.796;9.026;2023-06-10T00:08:00;21.70;53.00
15298;DHT22;7750;48.796;9.026;2023-06-10T00:13:19;21.60;53.30
15298;DHT22;7750;48.796;9.026;2023-06-10T00:18:24;21.50;53.60
15298;DHT22;7750;48.796;9.026;2023-06-10T00:23:31;21.40;53.60
15298;DHT22;7750;48.796;9.026;2023-06-10T00:28:39;21.40;54.00
15298;DHT22;7750;48.796;9.026;2023-06-10T00:33:42;21.30;54.30
15298;DHT22;7750;48.796;9.026;2023-06-10T00:38:42;21.20;54.30
15298;DHT22;7750;48.796;9.026;2023-06-10T00:43:43;21.10;54.60
15298;DHT22;7750;48.796;9.026;2023-06-10T00:48:45;21.00;54.80
15298;DHT22;7750;48.796;9.026;2023-06-10T00:53:45;21.00;54.90
15298;DHT22;7750;48.796;9.026;2023-06-10T00:58:56;20.90;54.90
15298;DHT22;7750;48.796;9.026;2023-06-10T01:03:59;20.80;55.40
15298;DHT22;7750;48.796;9.026;2023-06-10T01:09:17;20.80;55.40
15298;DHT22;7750;48.796;9.026;2023-06-10T01:14:19;20.70;55.90
15298;DHT22;7750;48.796;9.026;2023-06-10T01:19:27;20.60;55.80
15298;DHT22;7750;48.796;9.026;2023-06-10T01:24:37;20.60;56.00
15298;DHT22;7750;48.796;9.026;2023-06-10T01:29:47;20.50;56.20
15298;DHT22;7750;48.796;9.026;2023-06-10T01:34:54;20.50;56.60
15298;DHT22;7750;48.796;9.026;2023-06-10T01:39:59;20.50;56.70
15298;DHT22;7750;48.796;9.026;2023-06-10T01:45:00;20.40;56.80
15298;DHT22;7750;48.796;9.026;2023-06-10T01:50:08;20.40;57.30
15298;DHT22;7750;48.796;9.026;2023-06-10T01:55:25;20.40;56.80
15298;DHT22;7750;48.796;9.026;2023-06-10T02:00:28;20.30;56.90
15298;DHT22;7750;48.796;9.026;2023-06-10T02:05:28;20.20;57.20
15298;DHT22;7750;48.796;9.026;2023-06-10T02:10:29;20.20;57.30
15298;DHT22;7750;48.796;9.026;2023-06-10T02:15:29;20.10;57.40
15298;DHT22;7750;48.796;9.026;2023-06-10T02:20:33;20.00;57.40
15298;DHT22;7750;48.796;9.026;2023-06-10T02:25:33;20.00;57.70
15298;DHT22;7750;48.796;9.026;2023-06-10T02:30:40;19.90;57.60
15298;DHT22;7750;48.796;9.026;2023-06-10T02:35:41;19.80;58.10
15298;DHT22;7750;48.796;9.026;2023-06-10T02:40:42;19.70;58.00
15298;DHT22;7750;48.796;9.026;2023-06-10T02:45:45;19.70;58.10
15298;DHT22;7750;48.796;9.026;2023-06-10T02:50:46;19.60;58.20
15298;DHT22;7750;48.796;9.026;2023-06-10T02:55:49;19.50;58.50
15298;DHT22;7750;48.796;9.026;2023-06-10T03:00:49;19.50;58.50
15298;DHT22;7750;48.796;9.026;2023-06-10T03:05:50;19.40;58.60
15298;DHT22;7750;48.796;9.026;2023-06-10T03:17:00;19.30;59.20
15298;DHT22;7750;48.796;9.026;2023-06-10T03:22:21;19.20;59.10
15298;DHT22;7750;48.796;9.026;2023-06-10T03:27:25;19.10;59.60
15298;DHT22;7750;48.796;9.026;2023-06-10T03:32:29;19.10;59.50
15298;DHT22;7750;48.796;9.026;2023-06-10T03:37:30;19.00;59.50
15298;DHT22;7750;48.796;9.026;2023-06-10T03:42:32;19.00;59.80
15298;DHT22;7750;48.796;9.026;2023-06-10T03:47:34;19.00;59.80
15298;DHT22;7750;48.796;9.026;2023-06-10T03:52:37;18.90;60.10
15298;DHT22;7750;48.796;9.026;2023-06-10T03:57:38;18.90;60.30
15298;DHT22;7750;48.796;9.026;2023-06-10T04:02:38;18.80;60.40
15298;DHT22;7750;48.796;9.026;2023-06-10T04:07:46;18.80;60.50
15298;DHT22;7750;48.796;9.026;2023-06-10T04:12:48;18.80;60.70
15298;DHT22;7750;48.796;9.026;2023-06-10T04:17:49;18.70;61.00
15298;DHT22;7750;48.796;9.026;2023-06-10T04:22:50;18.70;61.00
15298;DHT22;7750;48.796;9.026;2023-06-10T04:39:28;18.70;61.80
15298;DHT22;7750;48.796;9.026;2023-06-10T04:56:24;18.80;62.80
15298;DHT22;7750;48.796;9.026;2023-06-10T05:01:39;18.80;62.80
15298;DHT22;7750;48.796;9.026;2023-06-10T05:06:40;18.90;62.90
15298;DHT22;7750;48.796;9.026;2023-06-10T05:11:40;19.00;63.10
15298;DHT22;7750;48.796;9.026;2023-06-10T05:16:43;19.10;63.70
15298;DHT22;7750;48.796;9.026;2023-06-10T05:21:44;19.20;64.20
15298;DHT22;7750;48.796;9.026;2023-06-10T05:26:48;19.30;63.70
15298;DHT22;7750;48.796;9.026;2023-06-10T05:31:49;19.50;64.20
15298;DHT22;7750;48.796;9.026;2023-06-10T05:36:49;19.70;64.70
15298;DHT22;7750;48.796;9.026;2023-06-10T05:41:59;19.90;64.60
15298;DHT22;7750;48.796;9.026;2023-06-10T05:47:01;20.10;64.10
15298;DHT22;7750;48.796;9.026;2023-06-10T05:52:02;20.30;64.40
15298;DHT22;7750;48.796;9.026;2023-06-10T05:57:13;20.50;63.90
15298;DHT22;7750;48.796;9.026;2023-06-10T06:02:14;20.70;63.90
15298;DHT22;7750;48.796;9.026;2023-06-10T06:07:14;20.90;64.40
15298;DHT22;7750;48.796;9.026;2023-06-10T06:12:15;21.20;64.20
15298;DHT22;7750;48.796;9.026;2023-06-10T06:17:18;21.50;64.00
15298;DHT22;7750;48.796;9.026;2023-06-10T06:22:26;21.80;63.90
15298;DHT22;7750;48.796;9.026;2023-06-10T06:27:27;22.20;63.80
15298;DHT22;7750;48.796;9.026;2023-06-10T06:32:28;22.50;63.40
15298;DHT22;7750;48.796;9.026;2023-06-10T06:37:31;22.80;62.80
15298;DHT22;7750;48.796;9.026;2023-06-10T06:42:31;23.20;62.50
15298;DHT22;7750;48.796;9.026;2023-06-10T06:47:32;23.50;61.80
15298;DHT22;7750;48.796;9.026;2023-06-10T06:52:32;23.80;61.70
15298;DHT22;7750;48.796;9.026;2023-06-10T06:57:33;24.20;61.30
15298;DHT22;7750;48.796;9.026;2023-06-10T07:02:34;24.50;61.00
15298;DHT22;7750;48.796;9.026;2023-06-10T07:07:35;24.90;60.50
15298;DHT22;7750;48.796;9.026;2023-06-10T07:12:38;25.30;60.00
15298;DHT22;7750;48.796;9.026;2023-06-10T07:17:39;25.80;59.70
15298;DHT22;7750;48.796;9.026;2023-06-10T07:22:40;26.30;58.80
15298;DHT22;7750;48.796;9.026;2023-06-10T07:27:41;26.60;57.60
15298;DHT22;7750;48.796;9.026;2023-06-10T07:32:41;27.00;57.40
15298;DHT22;7750;48.796;9.026;2023-06-10T07:37:44;27.30;57.20
15298;DHT22;7750;48.796;9.026;2023-06-10T07:42:45;27.70;56.20
15298;DHT22;7750;48.796;9.026;2023-06-10T07:47:46;28.00;55.20
15298;DHT22;7750;48.796;9.026;2023-06-10T07:52:47;28.20;54.00
15298;DHT22;7750;48.796;9.026;2023-06-10T07:57:47;28.50;54.20
15298;DHT22;7750;48.796;9.026;2023-06-10T08:02:48;28.70;53.90
15298;DHT22;7750;48.796;9.026;2023-06-10T08:07:51;29.00;52.90
15298;DHT22;7750;48.796;9.026;2023-06-10T08:12:51;29.30;52.70
15298;DHT22;7750;48.796;9.026;2023-06-10T08:18:02;29.50;51.90
15298;DHT22;7750;48.796;9.026;2023-06-10T08:23:03;29.70;51.30
15298;DHT22;7750;48.796;9.026;2023-06-10T08:28:03;29.80;51.10
15298;DHT22;7750;48.796;9.026;2023-06-10T08:33:04;29.90;50.40
15298;DHT22;7750;48.796;9.026;2023-06-10T08:38:05;29.90;50.10
15298;DHT22;7750;48.796;9.026;2023-06-10T08:43:07;29.90;50.10
15298;DHT22;7750;48.796;9.026;2023-06-10T08:48:08;29.90;49.80
15298;DHT22;7750;48.796;9.026;2023-06-10T08:53:13;29.70;50.10
15298;DHT22;7750;48.796;9.026;2023-06-10T08:58:18;29.60;49.70
15298;DHT22;7750;48.796;9.026;2023-06-10T09:03:20;29.80;48.00
15298;DHT22;7750;48.796;9.026;2023-06-10T09:08:24;29.50;49.40
15298;DHT22;7750;48.796;9.026;2023-06-10T09:13:25;29.40;49.80
15298;DHT22;7750;48.796;9.026;2023-06-10T09:18:26;29.40;49.90
15298;DHT22;7750;48.796;9.026;2023-06-10T09:23:27;29.40;49.90
15298;DHT22;7750;48.796;9.026;2023-06-10T09:28:28;29.50;50.40
15298;DHT22;7750;48.796;9.026;2023-06-10T09:33:29;29.60;49.30
15298;DHT22;7750;48.796;9.026;2023-06-10T09:38:31;29.60;50.30
15298;DHT22;7750;48.796;9.026;2023-06-10T09:43:40;29.60;49.20
15298;DHT22;7750;48.796;9.026;2023-06-10T09:48:42;29.50;49.20
15298;DHT22;7750;48.796;9.026;2023-06-10T09:53:51;29.60;49.50
15298;DHT22;7750;48.796;9.026;2023-06-10T09:58:53;29.70;49.40
15298;DHT22;7750;48.796;9.026;2023-06-10T10:03:54;29.90;49.30
15298;DHT22;7750;48.796;9.026;2023-06-10T10:08:54;30.10;49.60
15298;DHT22;7750;48.796;9.026;2023-06-10T10:13:55;30.30;49.60
15298;DHT22;7750;48.796;9.026;2023-06-10T10:19:01;30.60;48.80
15298;DHT22;7750;48.796;9.026;2023-06-10T10:24:21;30.90;48.20
15298;DHT22;7750;48.796;9.026;2023-06-10T10:29:30;31.00;47.80
15298;DHT22;7750;48.796;9.026;2023-06-10T10:34:55;31.10;46.70
15298;DHT22;7750;48.796;9.026;2023-06-10T10:39:59;31.20;46.50
15298;DHT22;7750;48.796;9.026;2023-06-10T10:45:01;31.30;46.30
15298;DHT22;7750;48.796;9.026;2023-06-10T10:50:16;31.30;46.70
15298;DHT22;7750;48.796;9.026;2023-06-10T10:55:17;31.30;46.40
15298;DHT22;7750;48.796;9.026;2023-06-10T11:00:26;31.20;46.70
15298;DHT22;7750;48.796;9.026;2023-06-10T11:10:51;31.40;46.50
15298;DHT22;7750;48.796;9.026;2023-06-10T11:15:58;31.60;46.40
15298;DHT22;7750;48.796;9.026;2023-06-10T11:21:03;31.80;45.60
15298;DHT22;7750;48.796;9.026;2023-06-10T11:36:44;31.60;45.90
15298;DHT22;7750;48.796;9.026;2023-06-10T11:41:46;31.80;45.90
15298;DHT22;7750;48.796;9.026;2023-06-10T11:46:49;31.90;45.60
15298;DHT22;7750;48.796;9.026;2023-06-10T11:51:50;32.20;44.60
15298;DHT22;7750;48.796;9.026;2023-06-10T11:56:57;32.30;44.30
15298;DHT22;7750;48.796;9.026;2023-06-10T12:01:58;32.30;43.60
15298;DHT22;7750;48.796;9.026;2023-06-10T12:06:59;32.20;43.90
15298;DHT22;7750;48.796;9.026;2023-06-10T12:12:01;32.20;44.60
15298;DHT22;7750;48.796;9.026;2023-06-10T12:17:03;32.30;43.80
15298;DHT22;7750;48.796;9.026;2023-06-10T12:22:04;32.50;44.70
15298;DHT22;7750;48.796;9.026;2023-06-10T12:27:05;32.60;43.50
15298;DHT22;7750;48.796;9.026;2023-06-10T12:32:07;32.60;43.90
15298;DHT22;7750;48.796;9.026;2023-06-10T12:37:11;32.60;43.40
15298;DHT22;7750;48.796;9.026;2023-06-10T12:42:22;32.70;43.40
15298;DHT22;7750;48.796;9.026;2023-06-10T12:47:36;32.70;42.50
15298;DHT22;7750;48.796;9.026;2023-06-10T12:52:39;32.50;43.20
15298;DHT22;7750;48.796;9.026;2023-06-10T12:57:48;32.60;43.30
15298;DHT22;7750;48.796;9.026;2023-06-10T13:02:49;32.80;42.50
15298;DHT22;7750;48.796;9.026;2023-06-10T13:07:50;32.80;42.20
15298;DHT22;7750;48.796;9.026;2023-06-10T13:12:52;32.70;42.50
15298;DHT22;7750;48.796;9.026;2023-06-10T13:17:55;32.50;42.30
15298;DHT22;7750;48.796;9.026;2023-06-10T13:22:56;32.20;42.10
15298;DHT22;7750;48.796;9.026;2023-06-10T13:27:56;32.00;42.30
15298;DHT22;7750;48.796;9.026;2023-06-10T13:32:57;31.80;42.60
15298;DHT22;7750;48.796;9.026;2023-06-10T13:37:58;31.70;43.30
15298;DHT22;7750;48.796;9.026;2023-06-10T13:42:59;31.80;43.20
15298;DHT22;7750;48.796;9.026;2023-06-10T13:48:00;32.00;42.70
15298;DHT22;7750;48.796;9.026;2023-06-10T13:53:01;32.10;42.70
15298;DHT22;7750;48.796;9.026;2023-06-10T13:58:02;32.10;42.60
15298;DHT22;7750;48.796;9.026;2023-06-10T14:03:02;32.00;42.20
15298;DHT22;7750;48.796;9.026;2023-06-10T14:08:04;32.00;42.60
15298;DHT22;7750;48.796;9.026;2023-06-10T14:13:05;32.10;42.70
15298;DHT22;7750;48.796;9.026;2023-06-10T14:18:06;32.40;42.50
15298;DHT22;7750;48.796;9.026;2023-06-10T14:23:07;32.70;42.20
15298;DHT22;7750;48.796;9.026;2023-06-10T14:28:07;32.90;41.70
15298;DHT22;7750;48.796;9.026;2023-06-10T14:33:08;33.10;41.60
15298;DHT22;7750;48.796;9.026;2023-06-10T14:38:08;33.30;41.30
15298;DHT22;7750;48.796;9.026;2023-06-10T14:43:09;33.50;40.90
15298;DHT22;7750;48.796;9.026;2023-06-10T14:48:10;33.50;41.20
15298;DHT22;7750;48.796;9.026;2023-06-10T14:53:11;33.40;40.40
15298;DHT22;7750;48.796;9.026;2023-06-10T14:58:12;33.40;40.60
15298;DHT22;7750;48.796;9.026;2023-06-10T15:03:12;33.40;40.10
15298;DHT22;7750;48.796;9.026;2023-06-10T15:08:13;33.20;40.00
15298;DHT22;7750;48.796;9.026;2023-06-10T15:13:14;33.00;40.30
15298;DHT22;7750;48.796;9.026;2023-06-10T15:18:14;32.90;41.00
15298;DHT22;7750;48.796;9.026;2023-06-10T15:23:15;32.80;40.90
15298;DHT22;7750;48.796;9.026;2023-06-10T15:28:19;32.70;41.10
15298;DHT22;7750;48.796;9.026;2023-06-10T15:33:19;32.70;41.50
15298;DHT22;7750;48.796;9.026;2023-06-10T15:38:20;32.80;41.00
15298;DHT22;7750;48.796;9.026;2023-06-10T15:43:20;32.90;41.70
15298;DHT22;7750;48.796;9.026;2023-06-10T15:48:21;33.00;40.90
15298;DHT22;7750;48.796;9.026;2023-06-10T15:53:22;33.10;40.90
15298;DHT22;7750;48.796;9.026;2023-06-10T15:58:22;33.10;40.40
15298;DHT22;7750;48.796;9.026;2023-06-10T16:03:23;33.00;40.60
15298;DHT22;7750;48.796;9.026;2023-06-10T16:08:24;33.00;40.30
15298;DHT22;7750;48.796;9.026;2023-06-10T16:13:24;33.00;40.20
15298;DHT22;7750;48.796;9.026;2023-06-10T16:18:25;33.00;40.20
15298;DHT22;7750;48.796;9.026;2023-06-10T16:23:26;32.90;40.60
15298;DHT22;7750;48.796;9.026;2023-06-10T16:28:30;32.90;40.20
15298;DHT22;7750;48.796;9.026;2023-06-10T16:33:30;32.80;40.00
15298;DHT22;7750;48.796;9.026;2023-06-10T16:38:31;32.70;39.90
15298;DHT22;7750;48.796;9.026;2023-06-10T16:43:32;32.70;39.70
15298;DHT22;7750;48.796;9.026;2023-06-10T16:48:32;32.50;39.80
15298;DHT22;7750;48.796;9.026;2023-06-10T16:53:33;32.50;40.30
15298;DHT22;7750;48.796;9.026;2023-06-10T16:59:07;32.40;40.30
15298;DHT22;7750;48.796;9.026;2023-06-10T17:04:13;32.30;40.70
15298;DHT22;7750;48.796;9.026;2023-06-10T17:09:44;32.20;40.60
15298;DHT22;7750;48.796;9.026;2023-06-10T17:14:47;32.10;40.60
15298;DHT22;7750;48.796;9.026;2023-06-10T17:20:36;32.00;40.90
15298;DHT22;7750;48.796;9.026;2023-06-10T17:26:12;31.90;40.70
15298;DHT22;7750;48.796;9.026;2023-06-10T17:31:54;31.70;40.90
15298;DHT22;7750;48.796;9.026;2023-06-10T17:37:29;31.40;40.90
15298;DHT22;7750;48.796;9.026;2023-06-10T17:43:12;31.20;41.40
15298;DHT22;7750;48.796;9.026;2023-06-10T17:54:45;31.00;41.40
15298;DHT22;7750;48.796;9.026;2023-06-10T18:00:13;30.90;41.60
15298;DHT22;7750;48.796;9.026;2023-06-10T18:05:44;30.90;41.80
15298;DHT22;7750;48.796;9.026;2023-06-10T18:35:04;30.80;42.60
15298;DHT22;7750;48.796;9.026;2023-06-10T19:28:45;29.30;43.40
15298;DHT22;7750;48.796;9.026;2023-06-10T19:34:13;29.20;43.70
15298;DHT22;7750;48.796;9.026;2023-06-10T19:51:53;28.70;44.80
15298;DHT22;7750;48.796;9.026;2023-06-10T20:02:59;28.30;45.50
15298;DHT22;7750;48.796;9.026;2023-06-10T20:14:58;28.00;45.80
15298;DHT22;7750;48.796;9.026;2023-06-10T20:39:02;27.40;46.90
15298;DHT22;7750;48.796;9.026;2023-06-10T21:07:58;26.70;47.90
15298;DHT22;7750;48.796;9.026;2023-06-10T21:19:52;26.60;48.40
15298;DHT22;7750;48.796;9.026;2023-06-10T21:54:02;26.20;49.10
15298;DHT22;7750;48.796;9.026;2023-06-10T21:59:31;26.10;49.40
15298;DHT22;7750;48.796;9.026;2023-06-10T22:05:11;26.00;49.50
15298;DHT22;7750;48.796;9.026;2023-06-10T22:10:19;26.00;49.90
15298;DHT22;7750;48.796;9.026;2023-06-10T22:15:24;25.90;49.80
15298;DHT22;7750;48.796;9.026;2023-06-10T22:20:57;25.90;50.00
15298;DHT22;7750;48.796;9.026;2023-06-10T22:31:47;25.70;50.50
15298;DHT22;7750;48.796;9.026;2023-06-10T22:36:48;25.70;50.70
15298;DHT22;7750;48.796;9.026;2023-06-10T22:41:49;25.60;50.90
15298;DHT22;7750;48.796;9.026;2023-06-10T22:46:49;25.50;51.00
15298;DHT22;7750;48.796;9.026;2023-06-10T22:51:50;25.50;51.20
15298;DHT22;7750;48.796;9.026;2023-06-10T22:56:51;25.40;51.30
15298;DHT22;7750;48.796;9.026;2023-06-10T23:01:51;25.30;51.40
15298;DHT22;7750;48.796;9.026;2023-06-10T23:06:52;25.20;51.50
15298;DHT22;7750;48.796;9.026;2023-06-10T23:11:55;25.20;51.60
15298;DHT22;7750;48.796;9.026;2023-06-10T23:16:55;25.10;51.70
15298;DHT22;7750;48.796;9.026;2023-06-10T23:21:56;25.10;52.00
15298;DHT22;7750;48.796;9.026;2023-06-10T23:27:00;25.00;52.10
15298;DHT22;7750;48.796;9.026;2023-06-10T23:32:01;24.90;52.30
15298;DHT22;7750;48.796;9.026;2023-06-10T23:37:02;24.80;52.40
15298;DHT22;7750;48.796;9.026;2023-06-10T23:42:05;24.80;52.60
15298;DHT22;7750;48.796;9.026;2023-06-10T23:47:06;24.70;52.90
15298;DHT22;7750;48.796;9.026;2023-06-10T23:52:07;24.70;52.90
15298;DHT22;7750;48.796;9.026;2023-06-10T23:57:08;24.60;53.10
